createdAt,value
2022-09-03T00:00:39.791Z,5.63
2022-09-03T00:03:31.548Z,5.93
2022-09-03T00:06:12.257Z,5.07
2022-09-03T00:08:54.790Z,4.77
2022-09-03T00:12:11.596Z,4.83
2022-09-03T00:14:53.256Z,5.73
2022-09-03T00:17:30.903Z,5.20
2022-09-03T00:20:20.508Z,4.93
2022-09-03T00:22:55.407Z,5.33
2022-09-03T00:25:47.543Z,5.10
2022-09-03T00:28:26.583Z,5.10
2022-09-03T00:31:27.415Z,5.23
2022-09-03T00:34:15.188Z,4.87
2022-09-03T00:36:47.101Z,4.30
2022-09-03T00:39:21.221Z,5.80
2022-09-03T00:42:20.165Z,5.27
2022-09-03T00:45:10.628Z,6.13
2022-09-03T00:48:08.775Z,5.00
2022-09-03T00:50:49.306Z,5.37
2022-09-03T00:53:51.322Z,5.13
2022-09-03T00:56:44.362Z,5.27
2022-09-03T00:59:34.943Z,4.40
2022-09-03T01:02:30.874Z,4.37
2022-09-03T01:05:02.599Z,4.50
2022-09-03T01:08:04.561Z,4.90
2022-09-03T01:10:59.118Z,4.50
2022-09-03T01:13:45.824Z,4.57
2022-09-03T01:16:49.063Z,5.60
2022-09-03T01:19:36.453Z,5.03
2022-09-03T01:22:21.063Z,4.20
2022-09-03T01:25:32.362Z,5.00
2022-09-03T01:28:27.315Z,5.60
2022-09-03T01:31:18.920Z,5.03
2022-09-03T01:34:11.512Z,4.30
2022-09-03T01:37:20.050Z,4.20
2022-09-03T01:40:16.527Z,4.20
2022-09-03T01:43:14.033Z,5.63
2022-09-03T01:46:02.196Z,5.80
2022-09-03T01:48:44.632Z,4.77
2022-09-03T01:51:25.498Z,4.00
2022-09-03T01:54:21.267Z,4.70
2022-09-03T01:57:34.630Z,4.93
2022-09-03T02:00:15.214Z,5.10
2022-09-03T02:02:51.159Z,5.30
2022-09-03T02:05:26.329Z,4.77
2022-09-03T02:08:02.730Z,5.70
2022-09-03T02:10:47.942Z,4.97
2022-09-03T02:13:22.496Z,4.83
2022-09-03T02:15:58.243Z,4.83
2022-09-03T02:18:36.164Z,5.23
2022-09-03T02:21:08.436Z,4.53
2022-09-03T02:23:41.960Z,5.03
2022-09-03T02:26:18.407Z,5.00
2022-09-03T02:28:51.876Z,4.30
2022-09-03T02:31:24.145Z,4.90
2022-09-03T02:33:57.878Z,4.40
2022-09-03T02:36:33.067Z,5.30
2022-09-03T02:39:05.395Z,5.23
2022-09-03T02:41:37.209Z,5.53
2022-09-03T02:44:26.218Z,4.80
2022-09-03T02:47:00.912Z,5.00
2022-09-03T02:49:33.383Z,4.70
2022-09-03T02:52:12.261Z,6.30
2022-09-03T02:54:45.581Z,5.30
2022-09-03T02:57:18.457Z,5.10
2022-09-03T02:59:59.410Z,5.43
2022-09-03T03:02:31.250Z,5.00
2022-09-03T03:05:04.031Z,5.27
2022-09-03T03:07:39.470Z,5.70
2022-09-03T03:10:12.601Z,6.07
2022-09-03T03:12:45.317Z,5.10
2022-09-03T03:15:17.170Z,5.53
2022-09-03T03:17:48.856Z,5.87
2022-09-03T03:20:20.569Z,5.73
2022-09-03T03:22:52.376Z,6.80
2022-09-03T03:25:24.198Z,6.03
2022-09-03T03:27:56.981Z,5.43
2022-09-03T03:30:28.794Z,7.27
2022-09-03T03:33:01.370Z,9.60
2022-09-03T03:35:33.371Z,6.97
2022-09-03T03:38:05.182Z,5.90
2022-09-03T03:40:38.863Z,6.13
2022-09-03T03:43:10.610Z,5.70
2022-09-03T03:45:42.340Z,7.03
2022-09-03T03:48:14.110Z,5.80
2022-09-03T03:50:45.951Z,5.77
2022-09-03T03:53:17.728Z,6.10
2022-09-03T03:56:01.479Z,6.03
2022-09-03T03:58:33.996Z,6.60
2022-09-03T04:01:11.621Z,6.40
2022-09-03T04:03:44.219Z,5.53
2022-09-03T04:06:19.336Z,6.53
2022-09-03T04:08:52.645Z,6.93
2022-09-03T04:11:25.282Z,6.70
2022-09-03T04:13:57.271Z,6.80
2022-09-03T04:16:29.385Z,7.60
2022-09-03T04:19:01.623Z,6.57
2022-09-03T04:21:33.410Z,10.40
2022-09-03T04:24:06.219Z,6.57
2022-09-03T04:26:38.974Z,6.57
2022-09-03T04:29:11.323Z,6.63
2022-09-03T04:32:03.039Z,7.00
2022-09-03T04:34:35.187Z,8.00
2022-09-03T04:37:06.957Z,7.10
2022-09-03T04:39:39.074Z,6.20
2022-09-03T04:42:10.939Z,6.83
2022-09-03T04:44:42.772Z,6.50
2022-09-03T04:47:15.431Z,6.53
2022-09-03T04:49:47.187Z,6.37
2022-09-03T04:52:19.455Z,6.50
2022-09-03T04:54:51.306Z,6.10
2022-09-03T04:57:23.102Z,6.73
2022-09-03T04:59:55.417Z,6.57
2022-09-03T05:02:27.181Z,6.60
2022-09-03T05:04:58.967Z,7.10
2022-09-03T05:07:38.502Z,7.87
2022-09-03T05:10:20.262Z,6.67
2022-09-03T05:13:00.346Z,6.17
2022-09-03T05:15:33.121Z,6.70
2022-09-03T05:18:04.933Z,7.90
2022-09-03T05:20:36.672Z,7.23
2022-09-03T05:23:08.445Z,7.30
2022-09-03T05:25:40.327Z,7.37
2022-09-03T05:28:12.919Z,6.00
2022-09-03T05:30:44.719Z,10.70
2022-09-03T05:33:16.684Z,6.90
2022-09-03T05:35:48.379Z,7.40
2022-09-03T05:38:20.183Z,7.33
2022-09-03T05:40:52.003Z,6.67
2022-09-03T05:43:23.707Z,7.37
2022-09-03T05:46:03.630Z,6.83
2022-09-03T05:48:37.516Z,7.27
2022-09-03T05:51:11.835Z,7.03
2022-09-03T05:53:49.085Z,8.80
2022-09-03T05:56:22.719Z,7.07
2022-09-03T05:58:57.919Z,7.70
2022-09-03T06:01:32.681Z,7.00
2022-09-03T06:04:10.469Z,7.60
2022-09-03T06:06:44.401Z,7.43
2022-09-03T06:09:18.286Z,6.47
2022-09-03T06:11:50.394Z,7.70
2022-09-03T06:14:23.678Z,7.47
2022-09-03T06:16:56.956Z,7.17
2022-09-03T06:19:28.780Z,7.37
2022-09-03T06:22:00.504Z,7.90
2022-09-03T06:24:32.344Z,6.83
2022-09-03T06:27:04.788Z,8.30
2022-09-03T06:29:38.920Z,8.70
2022-09-03T06:32:10.683Z,7.43
2022-09-03T06:34:42.883Z,7.53
2022-09-03T06:37:14.660Z,7.73
2022-09-03T06:39:46.602Z,7.03
2022-09-03T06:42:18.411Z,7.03
2022-09-03T06:44:51.314Z,7.60
2022-09-03T06:47:23.087Z,8.17
2022-09-03T06:49:54.855Z,8.37
2022-09-03T06:52:27.521Z,7.17
2022-09-03T06:54:59.239Z,7.47
2022-09-03T06:57:31.031Z,7.47
2022-09-03T07:00:03.054Z,7.37
2022-09-03T07:02:34.810Z,8.30
2022-09-03T07:05:07.541Z,9.10
2022-09-03T07:07:40.574Z,7.80
2022-09-03T07:10:16.136Z,7.73
2022-09-03T07:12:47.900Z,7.73
2022-09-03T07:15:19.875Z,6.57
2022-09-03T07:17:51.785Z,7.60
2022-09-03T07:20:23.536Z,6.20
2022-09-03T07:22:56.700Z,7.30
2022-09-03T07:25:28.613Z,7.30
2022-09-03T07:28:00.424Z,5.97
2022-09-03T07:30:32.203Z,6.67
2022-09-03T07:33:04.568Z,7.20
2022-09-03T07:35:37.291Z,6.33
2022-09-03T07:38:09.544Z,6.30
2022-09-03T07:40:41.271Z,8.50
2022-09-03T07:43:13.798Z,6.97
2022-09-03T07:45:50.703Z,7.30
2022-09-03T07:48:22.846Z,6.90
2022-09-03T07:51:01.715Z,7.40
2022-09-03T07:53:33.983Z,7.03
2022-09-03T07:56:10.835Z,6.30
2022-09-03T07:58:43.043Z,6.57
2022-09-03T08:01:20.573Z,6.90
2022-09-03T08:03:53.615Z,6.57
2022-09-03T08:06:27.854Z,7.43
2022-09-03T08:09:05.050Z,5.50
2022-09-03T08:11:40.080Z,6.77
2022-09-03T08:14:13.902Z,6.23
2022-09-03T08:16:48.045Z,6.33
2022-09-03T08:19:20.125Z,7.00
2022-09-03T08:21:51.871Z,6.77
2022-09-03T08:24:25.737Z,6.70
2022-09-03T08:26:57.463Z,6.60
2022-09-03T08:29:29.285Z,6.50
2022-09-03T08:32:04.651Z,6.60
2022-09-03T08:34:37.463Z,5.63
2022-09-03T08:37:10.606Z,6.47
2022-09-03T08:39:42.452Z,6.57
2022-09-03T08:42:37.733Z,6.43
2022-09-03T08:45:14.198Z,5.50
2022-09-03T08:48:03.766Z,6.10
2022-09-03T08:50:42.222Z,5.30
2022-09-03T08:53:18.554Z,6.47
2022-09-03T08:56:13.056Z,6.20
2022-09-03T08:58:44.864Z,7.80
2022-09-03T09:01:37.560Z,5.00
2022-09-03T09:04:29.785Z,5.60
2022-09-03T09:07:14.637Z,5.10
2022-09-03T09:10:01.998Z,6.73
2022-09-03T09:12:58.928Z,4.80
2022-09-03T09:16:00.773Z,6.00
2022-09-03T09:18:41.490Z,5.07
2022-09-03T09:21:46.110Z,4.80
2022-09-03T09:24:24.136Z,5.90
2022-09-03T09:27:01.677Z,5.40
2022-09-03T09:29:36.848Z,5.23
2022-09-03T09:32:12.026Z,5.10
2022-09-03T09:34:46.469Z,5.27
2022-09-03T09:37:22.068Z,4.83
2022-09-03T09:39:57.659Z,5.23
2022-09-03T09:42:31.103Z,5.00
2022-09-03T09:45:11.223Z,4.53
2022-09-03T09:47:43.258Z,4.65
2022-09-03T09:50:24.783Z,3.95
2022-09-03T09:53:14.301Z,4.37
2022-09-03T09:55:58.170Z,4.70
2022-09-03T09:58:32.831Z,4.43
2022-09-03T10:01:14.818Z,4.50
2022-09-03T10:03:57.941Z,4.23
2022-09-03T10:06:53.837Z,5.30
2022-09-03T10:09:31.390Z,4.17
2022-09-03T10:12:24.614Z,4.17
2022-09-03T10:15:13.037Z,4.63
2022-09-03T10:17:59.298Z,4.07
2022-09-03T10:20:47.212Z,4.83
2022-09-03T10:23:30.043Z,4.70
2022-09-03T10:26:11.283Z,4.63
2022-09-03T10:28:47.602Z,4.45
2022-09-03T10:31:37.441Z,4.00
2022-09-03T10:34:35.047Z,4.90
2022-09-03T10:37:18.069Z,4.35
2022-09-03T10:40:00.237Z,4.35
2022-09-03T10:42:55.107Z,4.40
2022-09-03T10:45:54.945Z,4.57
2022-09-03T10:48:49.019Z,5.13
2022-09-03T10:51:38.569Z,4.10
2022-09-03T10:54:45.334Z,4.00
2022-09-03T10:57:37.971Z,4.20
2022-09-03T11:00:14.764Z,4.30
2022-09-03T11:03:05.172Z,4.93
2022-09-03T11:05:48.079Z,5.77
2022-09-03T11:08:30.799Z,6.27
2022-09-03T11:11:27.731Z,6.50
2022-09-03T11:14:10.003Z,6.40
2022-09-03T11:16:53.536Z,5.60
2022-09-03T11:19:40.003Z,6.47
2022-09-03T11:22:13.186Z,6.43
2022-09-03T11:24:54.805Z,6.37
2022-09-03T11:27:41.266Z,6.00
2022-09-03T11:30:22.386Z,6.23
2022-09-03T11:33:00.818Z,7.20
2022-09-03T11:35:32.508Z,5.60
2022-09-03T11:38:16.858Z,7.20
2022-09-03T11:41:38.243Z,7.33
2022-09-03T11:44:19.774Z,7.03
2022-09-03T11:46:59.186Z,8.33
2022-09-03T11:49:33.363Z,8.27
2022-09-03T11:52:10.011Z,7.87
2022-09-03T11:54:46.222Z,8.30
2022-09-03T11:57:27.322Z,9.90
2022-09-03T12:00:12.785Z,10.90
2022-09-03T12:02:54.255Z,11.37
2022-09-03T12:05:51.852Z,9.43
2022-09-03T12:08:43.480Z,5.63
2022-09-03T12:11:40.391Z,5.27
2022-09-03T12:14:18.107Z,4.97
2022-09-03T12:17:20.466Z,8.65
2022-09-03T12:19:54.530Z,7.80
2022-09-03T12:22:38.696Z,3.83
2022-09-03T12:25:15.746Z,8.10
2022-09-03T12:27:49.407Z,4.03
2022-09-03T12:30:25.606Z,3.97
2022-09-03T12:33:09.220Z,3.67
2022-09-03T12:38:44.546Z,3.23
2022-09-03T12:41:31.062Z,5.00
2022-09-03T12:44:03.514Z,8.27
2022-09-03T12:46:35.334Z,3.57
2022-09-03T12:52:06.610Z,4.23
2022-09-03T12:54:55.100Z,2.80
2022-09-03T12:57:42.464Z,3.50
2022-09-03T13:00:17.203Z,4.80
2022-09-03T13:03:02.728Z,3.40
2022-09-03T13:05:46.950Z,2.17
2022-09-03T13:08:26.289Z,3.17
2022-09-03T13:11:03.664Z,2.53
2022-09-03T13:13:37.353Z,3.78
2022-09-03T13:16:09.076Z,2.97
2022-09-03T13:19:06.607Z,3.60
2022-09-03T13:21:41.301Z,2.50
2022-09-03T13:24:45.575Z,2.97
2022-09-03T13:27:34.036Z,2.97
2022-09-03T13:30:13.293Z,3.47
2022-09-03T13:32:51.177Z,2.50
2022-09-03T13:35:29.334Z,2.87
2022-09-03T13:38:23.975Z,2.70
2022-09-03T13:41:01.451Z,3.67
2022-09-03T13:43:33.506Z,3.33
2022-09-03T13:46:36.898Z,4.60
2022-09-03T13:49:55.077Z,3.67
2022-09-03T13:52:48.481Z,2.90
2022-09-03T13:55:36.051Z,3.73
2022-09-03T13:58:32.538Z,3.70
2022-09-03T14:01:22.359Z,3.80
2022-09-03T14:04:00.002Z,3.17
2022-09-03T14:06:42.544Z,2.87
2022-09-03T14:09:17.042Z,2.93
2022-09-03T14:12:06.355Z,2.50
2022-09-03T14:14:38.995Z,2.87
2022-09-03T14:17:33.806Z,3.07
2022-09-03T14:20:28.378Z,3.40
2022-09-03T14:23:18.713Z,3.30
2022-09-03T14:25:55.843Z,3.10
2022-09-03T14:28:33.680Z,3.50
2022-09-03T14:31:36.665Z,3.33
2022-09-03T14:34:27.200Z,3.87
2022-09-03T14:37:06.180Z,2.00
2022-09-03T14:39:49.373Z,2.60
2022-09-03T14:42:36.948Z,2.77
2022-09-03T14:45:45.865Z,2.97
2022-09-03T14:48:41.943Z,8.50
2022-09-03T14:51:31.846Z,3.40
2022-09-03T14:54:44.916Z,2.50
2022-09-03T14:57:26.595Z,3.10
2022-09-03T15:00:18.438Z,2.90
2022-09-03T15:03:19.177Z,4.07
2022-09-03T15:06:09.339Z,4.20
2022-09-03T15:09:07.821Z,2.87
2022-09-03T15:12:10.764Z,3.10
2022-09-03T15:14:50.283Z,3.03
2022-09-03T15:17:47.080Z,2.93
2022-09-03T15:20:50.870Z,2.97
2022-09-03T15:23:41.515Z,2.93
2022-09-03T15:26:28.449Z,2.87
2022-09-03T15:29:10.218Z,4.63
2022-09-03T15:31:47.913Z,3.20
2022-09-03T15:34:22.519Z,3.23
2022-09-03T15:36:57.831Z,3.03
2022-09-03T15:39:35.620Z,3.20
2022-09-03T15:42:14.810Z,2.77
2022-09-03T15:44:51.150Z,3.00
2022-09-03T15:47:28.705Z,3.60
2022-09-03T15:50:38.367Z,3.33
2022-09-03T15:53:34.039Z,3.17
2022-09-03T15:56:38.499Z,4.60
2022-09-03T15:59:27.290Z,3.00
2022-09-03T16:02:04.400Z,3.28
2022-09-03T16:05:07.089Z,3.30
2022-09-03T16:07:38.829Z,4.90
2022-09-03T16:10:25.529Z,2.87
2022-09-03T16:13:28.555Z,2.80
2022-09-03T16:16:04.737Z,3.97
2022-09-03T16:18:39.363Z,2.30
2022-09-03T16:21:20.069Z,4.90
2022-09-03T16:24:09.568Z,3.70
2022-09-03T16:26:54.603Z,4.10
2022-09-03T16:29:30.819Z,3.30
2022-09-03T16:32:11.587Z,5.80
2022-09-03T16:34:43.316Z,3.20
2022-09-03T16:37:37.784Z,3.30
2022-09-03T16:40:34.477Z,2.60
2022-09-03T16:43:39.565Z,3.53
2022-09-03T16:46:53.611Z,4.27
2022-09-03T16:49:52.514Z,4.90
2022-09-03T16:52:56.952Z,4.47
2022-09-03T16:55:50.823Z,3.97
2022-09-03T16:58:35.298Z,3.97
2022-09-03T17:01:40.728Z,3.17
2022-09-03T17:04:31.346Z,3.03
2022-09-03T17:07:13.465Z,4.20
2022-09-03T17:10:12.382Z,3.57
2022-09-03T17:12:50.265Z,3.63
2022-09-03T17:16:09.696Z,3.23
2022-09-03T17:19:34.346Z,3.30
2022-09-03T17:22:39.736Z,3.00
2022-09-03T17:25:35.474Z,3.63
2022-09-03T17:28:24.642Z,3.40
2022-09-03T17:31:03.729Z,3.30
2022-09-03T17:33:50.098Z,3.50
2022-09-03T17:36:32.317Z,3.60
2022-09-03T17:39:30.857Z,3.20
2022-09-03T17:42:40.987Z,4.40
2022-09-03T17:45:41.294Z,3.77
2022-09-03T17:48:49.713Z,3.50
2022-09-03T17:51:35.130Z,3.13
2022-09-03T17:54:16.945Z,4.30
2022-09-03T17:57:10.475Z,3.53
2022-09-03T18:00:05.919Z,3.47
2022-09-03T18:02:54.172Z,4.53
2022-09-03T18:05:34.307Z,3.77
2022-09-03T18:08:49.953Z,2.53
2022-09-03T18:11:40.747Z,3.63
2022-09-03T18:14:28.655Z,3.50
2022-09-03T18:17:18.959Z,6.70
2022-09-03T18:20:17.830Z,3.78
2022-09-03T18:23:11.339Z,3.40
2022-09-03T18:26:05.916Z,4.30
2022-09-03T18:29:01.358Z,7.17
2022-09-03T18:31:52.830Z,9.67
2022-09-03T18:34:51.247Z,9.97
2022-09-03T18:37:44.117Z,3.97
2022-09-03T18:40:46.307Z,4.03
2022-09-03T18:43:59.383Z,3.40
2022-09-03T18:50:50.679Z,3.20
2022-09-03T18:53:58.958Z,3.13
2022-09-03T18:57:08.852Z,3.23
2022-09-03T19:00:29.283Z,3.70
2022-09-03T19:03:19.670Z,3.67
2022-09-03T19:06:40.270Z,3.50
2022-09-03T19:09:48.651Z,3.80
2022-09-03T19:13:13.092Z,5.03
2022-09-03T19:16:10.615Z,3.23
2022-09-03T19:19:19.620Z,3.07
2022-09-03T19:22:17.187Z,4.97
2022-09-03T19:25:12.585Z,3.47
2022-09-03T19:28:21.332Z,3.23
2022-09-03T19:31:39.790Z,3.00
2022-09-03T19:34:55.822Z,2.80
2022-09-03T19:38:17.201Z,2.90
2022-09-03T19:41:16.792Z,3.50
2022-09-03T19:44:10.333Z,3.57
2022-09-03T19:47:07.782Z,2.70
2022-09-03T19:50:01.263Z,4.43
2022-09-03T19:53:11.536Z,3.17
2022-09-03T19:56:10.941Z,3.37
2022-09-03T19:59:10.592Z,3.93
2022-09-03T20:02:01.747Z,4.90
2022-09-03T20:05:02.526Z,6.07
2022-09-03T20:07:53.938Z,4.13
2022-09-03T20:10:27.627Z,3.80
2022-09-03T20:13:08.214Z,3.25
2022-09-03T20:16:04.883Z,4.57
2022-09-03T20:18:54.390Z,4.90
2022-09-03T20:21:55.910Z,6.80
2022-09-03T20:25:07.445Z,4.13
2022-09-03T20:28:06.038Z,4.20
2022-09-03T20:31:08.567Z,4.30
2022-09-03T20:33:58.338Z,8.43
2022-09-03T20:36:54.135Z,3.93
2022-09-03T20:39:38.724Z,3.27
2022-09-03T20:42:41.354Z,4.28
2022-09-03T20:45:25.178Z,9.10
2022-09-03T20:48:08.461Z,6.10
2022-09-03T20:50:53.269Z,4.43
2022-09-03T20:53:25.002Z,5.37
2022-09-03T20:56:15.981Z,4.90
2022-09-03T20:58:58.227Z,5.13
2022-09-03T21:01:51.961Z,5.53
2022-09-03T21:05:01.971Z,4.30
2022-09-03T21:08:01.332Z,4.50
2022-09-03T21:11:01.217Z,3.57
2022-09-03T21:13:54.153Z,4.00
2022-09-03T21:16:54.278Z,4.77
2022-09-03T21:19:47.994Z,4.07
2022-09-03T21:22:31.583Z,3.40
2022-09-03T21:25:07.593Z,9.67
2022-09-03T21:27:58.755Z,4.80
2022-09-03T21:30:34.617Z,6.30
2022-09-03T21:33:23.546Z,4.67
2022-09-03T21:36:07.480Z,6.30
2022-09-03T21:38:39.933Z,4.83
2022-09-03T21:41:27.135Z,4.47
2022-09-03T21:44:10.493Z,4.73
2022-09-03T21:47:02.127Z,3.57
2022-09-03T21:49:49.115Z,5.03
2022-09-03T21:52:31.297Z,4.67
2022-09-03T21:55:21.311Z,4.37
2022-09-03T21:58:16.692Z,4.60
2022-09-03T22:00:51.065Z,4.93
2022-09-03T22:03:22.974Z,4.07
2022-09-03T22:06:03.114Z,5.13
2022-09-03T22:09:03.862Z,8.93
2022-09-03T22:12:05.027Z,5.03
2022-09-03T22:14:53.310Z,4.70
2022-09-03T22:17:38.134Z,4.97
2022-09-03T22:20:14.459Z,4.73
2022-09-03T22:22:52.289Z,4.60
2022-09-03T22:25:28.051Z,4.63
2022-09-03T22:28:24.629Z,4.30
2022-09-03T22:31:14.232Z,5.50
2022-09-03T22:34:11.994Z,4.63
2022-09-03T22:37:04.144Z,5.33
2022-09-03T22:39:41.376Z,5.83
2022-09-03T22:42:43.668Z,5.13
2022-09-03T22:46:00.698Z,4.57
2022-09-03T22:48:56.491Z,5.40
2022-09-03T22:51:35.143Z,5.27
2022-09-03T22:54:38.178Z,4.87
2022-09-03T22:57:12.960Z,8.03
2022-09-03T23:00:04.670Z,4.60
2022-09-03T23:02:38.044Z,4.40
2022-09-03T23:05:32.536Z,5.10
2022-09-03T23:08:17.855Z,5.40
2022-09-03T23:11:09.614Z,4.80
2022-09-03T23:13:47.387Z,5.83
2022-09-03T23:16:40.388Z,4.90
2022-09-03T23:22:20.786Z,5.70
2022-09-03T23:25:05.527Z,6.77
2022-09-03T23:27:43.742Z,6.07
2022-09-03T23:30:15.507Z,4.80
2022-09-03T23:32:52.641Z,5.90
2022-09-03T23:35:30.164Z,6.80
2022-09-03T23:38:29.999Z,4.57
2022-09-03T23:41:10.974Z,4.70
2022-09-03T23:44:09.438Z,5.80
2022-09-03T23:47:01.494Z,6.27
2022-09-03T23:49:46.707Z,6.97
2022-09-03T23:52:43.089Z,4.90
2022-09-03T23:55:44.178Z,5.33
2022-09-03T23:58:27.940Z,5.87
